METAR stanice u blizini

 

LYBE - Beograd / Surčin, Srbija
Ažurirano: 08/12/2021 02:30
Mostly Cloudy
Mostly Cloudy
 Pravac vetra Z
Vetar: Z 20 km/h
Temperatura: 0°C
Osećaj hladnoće: -6°C
Tačka rose: -1°C
Vlažnost: 93%
Pritisak: 1012 hPa
Oblaci: Mostly Cloudy
Vidljivost: 10 km
Cloud details: Mostly Cloudy 1006 m
2021/12/08 01:30 LYBE 080130Z 28011KT 9999 BKN033 00/M01 Q1012 NOSIG
LYBT - Beograd / Batajnica, Srbija
Ažurirano: 08/12/2021 02:30
Mostly Cloudy
Mostly Cloudy
 Pravac vetra ZJZ
Vetar: ZJZ 15 km/h
Temperatura: 0°C
Osećaj hladnoće: -4°C
Tačka rose: -1°C
Vlažnost: 93%
Pritisak: 1012 hPa
Oblaci: Mostly Cloudy
Vidljivost: 10 km
Cloud details: Mostly Cloudy 1036 m
2021/12/08 01:30 LYBT 080130Z 24008KT 9999 BKN034 M00/M01 Q1012 NOSIG
LYVR - Vršac, Srbija
Ažurirano: 08/12/2021 02:30
Oblačno
Oblačno
 Pravac vetra ZSZ
Vetar: ZSZ 13 km/h
Temperatura: 1°C
Osećaj hladnoće: -3°C
Tačka rose: 1°C
Vlažnost: 100%
Pritisak: 1011 hPa
Oblaci: Oblačno
Vidljivost: 8 km
Cloud details: Partly Cloudy 183 m
Oblačno 1036 m
2021/12/08 01:30 LYVR 080130Z AUTO 29007KT 8000 SCT006/// OVC034/// 01/01 Q1011
 
LYKV - Lađevci, Srbija
Ažurirano: 08/12/2021 02:30
Mostly Cloudy
Mostly Cloudy
 Pravac vetra varies
Vetar: varies 4 km/h
Temperatura: 1°C
Tačka rose: -1°C
Vlažnost: 87%
Pritisak: 1012 hPa
Oblaci: Mostly Cloudy
Vidljivost: 10 km
Cloud details: Partly Cloudy 457 m
Mostly Cloudy 914 m
2021/12/08 01:30 LYKV 080130Z VRB02KT 9999 SCT015 BKN030 01/M01 Q1012 NOSIG
LYNI - Niš, Srbija
Ažurirano: 08/12/2021 02:30
Oblačno
Oblačno
 Pravac vetra SZ
Vetar: SZ 15 km/h
Temperatura: 1°C
Osećaj hladnoće: -3°C
Tačka rose: -1°C
Vlažnost: 87%
Pritisak: 1010 hPa
Oblaci: Oblačno
Vidljivost: 10 km
Cloud details: Few Clouds 305 m
Mostly Cloudy 518 m
Oblačno 823 m
2021/12/08 01:30 LYNI 080130Z 31008KT 9999 FEW010 BKN017 OVC027 01/M01 Q1010 NOSIG
BKPR - Priština, Srbija
Ažurirano: 08/12/2021 02:30
Mostly Cloudy
Mostly Cloudy
 Pravac vetra SSZ
Vetar: SSZ 20 km/h
Temperatura: 1°C
Osećaj hladnoće: -4°C
Tačka rose: 0°C
Vlažnost: 93%
Pritisak: 1009 hPa
Oblaci: Mostly Cloudy
Vidljivost: 10 km
Cloud details: Mostly Cloudy 2134 m
2021/12/08 01:30 BKPR 080130Z 34011KT 9999 BKN070 01/M00 Q1009 NOSIG
 
LHPP - Pecs / Pogany, Hungary
Ažurirano: 08/12/2021 02:15
Vedro
Vedro
 Pravac vetra ZSZ
Vetar: ZSZ 15 km/h
Temperatura: -1°C
Osećaj hladnoće: -6°C
Tačka rose: -2°C
Vlažnost: 93%
Pritisak: 1012 hPa
Pregled: Vedro
Vidljivost: greater than 10 km
2021/12/08 01:15 LHPP 080115Z AUTO 30008KT CAVOK M01/M02 Q1012
LHUD - Szeged, Hungary
Ažurirano: 04/07/2019 01:45
NOT Current
Vedro
Vedro
 Pravac vetra S
Vetar: S 7 km/h
Temperatura: 18°C
Tačka rose: 13°C
Vlažnost: 73%
Pritisak: 1019 hPa
Pregled: Vedro
Vidljivost: greater than 10 km
2019/07/03 23:45 LHUD 032345Z 35004KT CAVOK 18/13 Q1019
LRTR - Timisoara, Romania
Ažurirano: 08/12/2021 02:30
Mostly Cloudy
Mostly Cloudy
 Pravac vetra ZSZ
Vetar: ZSZ 11 km/h
Temperatura: 1°C
Osećaj hladnoće: -2°C
Tačka rose: 1°C
Vlažnost: 100%
Pritisak: 1010 hPa
Oblaci: Mostly Cloudy
Vidljivost: 10 km
Cloud details: Few Clouds 427 m
Mostly Cloudy 853 m
2021/12/08 01:30 LRTR 080130Z 30006KT 9999 FEW014 BKN028 01/01 Q1010
 
LRCV - Craiova, Romania
Ažurirano: 08/12/2021 02:30
Padavine, Oblačno
Padavine, Oblačno
 Pravac vetra SZ
Vetar: SZ 4 km/h
Temperatura: 3°C
Tačka rose: 2°C
Vlažnost: 93%
Pritisak: 1005 hPa
Pregled: Padavine
Oblaci: Oblačno
Vidljivost: 10 km
Cloud details: Partly Cloudy 457 m
Oblačno 610 m
2021/12/08 01:30 LRCV 080130Z 32002KT 9999 RA SCT015 OVC020 03/02 Q1005
LBSF - Sofia, Bulgaria
Ažurirano: 08/12/2021 02:30
Light snow, Oblačno
Light snow, Oblačno
 Pravac vetra Z
Vetar: Z 24 km/h
Temperatura: -1°C
Osećaj hladnoće: -7°C
Tačka rose: -2°C
Vlažnost: 93%
Pritisak: 1006 hPa
Pregled: Light Snow
Oblaci: Oblačno
Vidljivost: 10 km
Cloud details: Partly Cloudy 366 m
Mostly Cloudy 1128 m
Oblačno 1433 m
2021/12/08 01:30 LBSF 080130Z 28013KT 9999 -SN SCT012 BKN037 OVC047 M01/M02 Q1006 NOSIG
LWSK - Skoplje, Makedonija
Ažurirano: 08/12/2021 02:30
Oblačno
Oblačno
 Pravac vetra SSI
Vetar: SSI 4 km/h
Temperatura: 3°C
Tačka rose: -1°C
Vlažnost: 75%
Pritisak: 1009 hPa
Oblaci: Oblačno
Vidljivost: 10 km
Cloud details: Oblačno 1372 m
2021/12/08 01:30 LWSK 080130Z 02002KT 9999 OVC045 03/M01 Q1009 NOSIG
 
LYPG - Podgorica, Crna Gora
Ažurirano: 08/12/2021 02:30
Vedro
Vedro
 Pravac vetra S
Vetar: S 19 km/h
Temperatura: 5°C
Osećaj hladnoće: 1°C
Tačka rose: -6°C
Vlažnost: 45%
Pritisak: 1011 hPa
Pregled: Vedro
Vidljivost: greater than 10 km
2021/12/08 01:30 LYPG 080130Z 35010KT 310V090 CAVOK 05/M06 Q1011 NOSIG
LQSA - Sarajevo, Bosna i Hercegovina
Ažurirano: 08/12/2021 02:00
Mostly Cloudy
Mostly Cloudy
 Pravac vetra varies
Vetar: varies 2 km/h
Temperatura: -2°C
Tačka rose: -2°C
Vlažnost: 100%
Pritisak: 1012 hPa
Oblaci: Mostly Cloudy
Vidljivost: 10 km
Cloud details: Mostly Cloudy 1067 m
2021/12/08 01:00 LQSA 080100Z VRB01KT 9999 BKN035 M02/M02 Q1012
LDOS - Osijek, Hrvatksa
Ažurirano: 08/12/2021 02:30
Vedro
Vedro
 Pravac vetra ZJZ
Vetar: ZJZ 11 km/h
Temperatura: -2°C
Osećaj hladnoće: -6°C
Tačka rose: -3°C
Vlažnost: 93%
Pritisak: 1012 hPa
Pregled: Vedro
Vidljivost: greater than 10 km
2021/12/08 01:30 LDOS 080130Z 25006KT CAVOK M02/M03 Q1012